Time;durP1;ratioP1;P1;durP2;ratioP2;P2;SDS_P1;SDS_P2;PMS_P1;PMS_P2;Temp;Humidity;BMP_temperature;BMP_pressure;BME280_temperature;BME280_humidity;BME280_pressure;Samples;Min_cycle;Max_cycle;Signal;HPM_P1;HPM_P2
2022/05/24 00:01:29;;;;;;;4.90;2.03;;;13.50;99.90;;;;;;5056638;28;20523;-64
2022/05/24 00:03:56;;;;;;;3.40;2.03;;;13.50;99.90;;;;;;5042611;28;20045;-64
2022/05/24 00:06:25;;;;;;;4.03;1.98;;;13.50;99.90;;;;;;5043319;28;20041;-64
2022/05/24 00:08:51;;;;;;;4.82;2.28;;;13.40;99.90;;;;;;5048843;28;20041;-64
2022/05/24 00:11:17;;;;;;;3.47;2.35;;;13.40;99.90;;;;;;5046172;28;20136;-64
2022/05/24 00:13:43;;;;;;;5.20;2.17;;;13.40;99.90;;;;;;5054665;28;20045;-64
2022/05/24 00:16:09;;;;;;;2.67;1.65;;;13.40;99.90;;;;;;5041290;28;20045;-65
2022/05/24 00:18:35;;;;;;;3.80;2.00;;;13.40;99.90;;;;;;5042805;28;20069;-64
2022/05/24 00:21:04;;;;;;;4.18;2.22;;;13.40;99.90;;;;;;5042837;28;20077;-64
2022/05/24 00:23:30;;;;;;;7.65;5.97;;;13.50;99.90;;;;;;5058395;28;20083;-65
2022/05/24 00:26:03;;;;;;;8.48;6.78;;;13.50;99.90;;;;;;5050600;28;20041;-63
2022/05/24 00:28:31;;;;;;;10.45;7.43;;;13.40;99.90;;;;;;5043641;28;20033;-63
2022/05/24 00:30:58;;;;;;;13.20;8.73;;;13.50;99.90;;;;;;5048082;28;20037;-64
2022/05/24 00:33:26;;;;;;;12.55;8.20;;;13.50;99.90;;;;;;5045206;28;20047;-64
2022/05/24 00:35:53;;;;;;;10.35;8.20;;;13.50;99.90;;;;;;5048155;28;20048;-64
2022/05/24 00:38:36;;;;;;;9.77;7.10;;;13.40;99.90;;;;;;5044416;28;20471;-64
2022/05/24 00:41:25;;;;;;;9.73;7.00;;;13.40;99.90;;;;;;5049378;28;20404;-64
2022/05/24 00:44:14;;;;;;;9.25;7.28;;;13.40;99.90;;;;;;5043833;28;20049;-65
2022/05/24 00:46:58;;;;;;;8.77;6.28;;;13.40;99.90;;;;;;5051227;28;20128;-64
2022/05/24 00:49:30;;;;;;;9.60;6.78;;;13.40;99.90;;;;;;5049998;28;20047;-64
2022/05/24 00:52:01;;;;;;;10.87;6.70;;;13.40;99.90;;;;;;5053164;28;20037;-64
2022/05/24 00:54:27;;;;;;;8.15;6.60;;;13.30;99.90;;;;;;5049865;28;20295;-64
2022/05/24 00:57:02;;;;;;;10.13;6.70;;;13.30;99.90;;;;;;5052937;28;20037;-64
2022/05/24 00:59:48;;;;;;;8.18;6.43;;;13.30;99.90;;;;;;5048164;28;20143;-64
2022/05/24 01:02:14;;;;;;;10.77;6.70;;;13.30;99.90;;;;;;5051746;28;20037;-64
2022/05/24 01:04:39;;;;;;;9.35;6.90;;;13.30;99.90;;;;;;5049727;28;20102;-64
2022/05/24 01:07:05;;;;;;;8.30;6.60;;;13.20;99.90;;;;;;5052150;28;20040;-64
2022/05/24 01:09:43;;;;;;;8.90;6.82;;;13.20;99.90;;;;;;5048597;28;20033;-64
2022/05/24 01:12:15;;;;;;;8.13;6.85;;;13.20;99.90;;;;;;5051954;28;20040;-64
2022/05/24 01:14:42;;;;;;;10.93;6.85;;;13.10;99.90;;;;;;5048285;28;20084;-64
2022/05/24 01:17:08;;;;;;;9.35;7.13;;;13.10;99.90;;;;;;5051882;28;20036;-64
2022/05/24 01:19:41;;;;;;;10.50;7.47;;;13.10;99.90;;;;;;5049271;28;20103;-64
2022/05/24 01:22:39;;;;;;;8.50;7.13;;;13.10;99.90;;;;;;5051349;28;20045;-64
2022/05/24 01:25:23;;;;;;;11.68;7.95;;;13.10;99.90;;;;;;5047694;28;20037;-64
2022/05/24 01:27:49;;;;;;;8.45;7.30;;;13.10;99.90;;;;;;5052576;28;20468;-64
2022/05/24 01:30:15;;;;;;;11.75;7.70;;;13.10;99.90;;;;;;5049388;28;20065;-64
2022/05/24 01:38:15;;;;;;;9.07;7.55;;;13.10;99.90;;;;;;5051956;28;20049;-63
2022/05/24 01:40:42;;;;;;;10.05;7.75;;;13.10;99.90;;;;;;5050756;28;20087;-64
2022/05/24 01:43:09;;;;;;;10.10;8.27;;;13.10;99.90;;;;;;5048196;28;20041;-64
2022/05/24 01:45:39;;;;;;;11.68;7.63;;;13.20;99.90;;;;;;5049517;28;20480;-64
2022/05/24 01:48:14;;;;;;;11.32;7.63;;;13.20;99.90;;;;;;5049525;28;20064;-63
2022/05/24 01:50:42;;;;;;;11.43;8.27;;;13.20;99.90;;;;;;5048552;28;20214;-64
2022/05/24 01:53:23;;;;;;;10.02;7.70;;;13.20;99.90;;;;;;5049347;28;20115;-63
2022/05/24 01:55:55;;;;;;;10.07;8.45;;;13.20;99.90;;;;;;5048387;28;20112;-64
2022/05/24 01:58:23;;;;;;;12.05;8.80;;;13.20;99.90;;;;;;5049832;28;20087;-64
2022/05/24 02:00:55;;;;;;;9.57;7.68;;;13.30;99.90;;;;;;5047874;28;20101;-64
2022/05/24 02:03:21;;;;;;;13.48;9.15;;;13.30;99.90;;;;;;5051114;28;20085;-64
2022/05/24 02:05:46;;;;;;;12.02;9.60;;;13.30;99.90;;;;;;5047627;28;20044;-64
2022/05/24 02:08:12;;;;;;;13.43;9.75;;;13.30;99.90;;;;;;5051422;28;20414;-64
2022/05/24 02:10:53;;;;;;;15.45;11.65;;;13.40;99.90;;;;;;5046834;28;20672;-64
2022/05/24 02:13:29;;;;;;;17.55;12.70;;;13.40;99.90;;;;;;5049312;28;20099;-63
2022/05/24 02:15:59;;;;;;;18.15;13.18;;;13.40;99.90;;;;;;5047652;28;20041;-63
2022/05/24 02:18:26;;;;;;;19.10;15.05;;;13.40;99.90;;;;;;5047780;28;20431;-64
2022/05/24 02:20:52;;;;;;;21.27;15.05;;;13.40;99.90;;;;;;5038878;28;20037;-64
2022/05/24 02:23:19;;;;;;;21.42;15.90;;;13.50;99.90;;;;;;5042040;28;20047;-64
2022/05/24 02:25:44;;;;;;;22.52;16.45;;;13.50;99.90;;;;;;5046057;28;21037;-64
2022/05/24 02:28:11;;;;;;;21.13;16.17;;;13.50;99.90;;;;;;5048449;28;20124;-64
2022/05/24 02:30:45;;;;;;;20.60;15.88;;;13.50;99.90;;;;;;5048273;28;20060;-63
2022/05/24 02:33:11;;;;;;;22.00;16.83;;;13.50;99.90;;;;;;5030076;28;20119;-64
2022/05/24 02:35:37;;;;;;;22.42;17.50;;;13.50;99.90;;;;;;5045009;28;20610;-64
2022/05/24 02:38:03;;;;;;;23.95;17.20;;;13.50;99.90;;;;;;5044029;28;20037;-64
2022/05/24 02:43:13;;;;;;;23.38;17.92;;;13.60;99.90;;;;;;5046634;28;20527;-64
2022/05/24 02:45:39;;;;;;;21.65;16.75;;;13.60;99.90;;;;;;5047201;28;20047;-64
2022/05/24 02:48:05;;;;;;;21.85;18.23;;;13.60;99.90;;;;;;5046885;28;20049;-64
2022/05/24 02:50:30;;;;;;;23.58;17.90;;;13.60;99.90;;;;;;5043865;28;20073;-63
2022/05/24 02:52:56;;;;;;;21.73;18.33;;;13.60;99.90;;;;;;5043332;28;20064;-64
2022/05/24 02:55:22;;;;;;;21.95;17.38;;;13.60;99.90;;;;;;5043154;28;20555;-64
2022/05/24 02:57:48;;;;;;;20.05;17.08;;;13.50;99.90;;;;;;5044246;28;20127;-63
2022/05/24 03:00:20;;;;;;;20.45;17.33;;;13.50;99.90;;;;;;5045971;28;20037;-64
2022/05/24 03:02:46;;;;;;;21.67;17.50;;;13.60;99.90;;;;;;5041131;28;20037;-63
2022/05/24 03:05:13;;;;;;;22.23;17.45;;;13.60;99.90;;;;;;5050114;28;20198;-63
2022/05/24 03:10:24;;;;;;;20.23;16.90;;;13.60;99.90;;;;;;5044758;28;20045;-63
2022/05/24 03:15:36;;;;;;;19.05;16.77;;;13.60;99.90;;;;;;5043798;28;20769;-64
2022/05/24 03:18:02;;;;;;;19.75;16.50;;;13.60;99.90;;;;;;5044798;28;20032;-64
2022/05/24 03:20:27;;;;;;;22.92;16.17;;;13.60;99.90;;;;;;5049024;28;20033;-64
2022/05/24 03:22:53;;;;;;;20.20;16.27;;;13.60;99.90;;;;;;5048621;28;20183;-64
2022/05/24 03:25:19;;;;;;;19.58;14.93;;;13.60;99.90;;;;;;5049159;28;20075;-64
2022/05/24 03:27:48;;;;;;;19.02;15.10;;;13.60;99.90;;;;;;5046855;28;20128;-64
2022/05/24 03:30:14;;;;;;;18.00;15.07;;;13.60;99.90;;;;;;5049165;28;20037;-64
2022/05/24 03:32:40;;;;;;;17.08;14.75;;;13.60;99.90;;;;;;5049249;28;20041;-63
2022/05/24 03:35:08;;;;;;;17.20;14.52;;;13.50;99.90;;;;;;5046637;28;20066;-64
2022/05/24 03:37:34;;;;;;;22.25;14.55;;;13.50;99.90;;;;;;5048992;28;20051;-64
2022/05/24 03:39:59;;;;;;;19.70;14.50;;;13.50;99.90;;;;;;5047813;28;20499;-64
2022/05/24 03:42:25;;;;;;;19.80;14.18;;;13.50;99.90;;;;;;5049461;28;20487;-64
2022/05/24 03:44:51;;;;;;;16.95;13.80;;;13.50;99.90;;;;;;5048901;28;20036;-64
2022/05/24 03:47:16;;;;;;;18.23;14.20;;;13.50;99.90;;;;;;5048358;28;20075;-63
2022/05/24 03:49:42;;;;;;;19.55;14.10;;;13.50;99.90;;;;;;5045510;28;20044;-64
2022/05/24 03:52:08;;;;;;;19.20;14.25;;;13.50;99.90;;;;;;5049013;28;20939;-64
2022/05/24 03:54:33;;;;;;;19.35;14.60;;;13.50;99.90;;;;;;5047015;28;20036;-64
2022/05/24 03:59:44;;;;;;;19.45;13.85;;;13.60;99.90;;;;;;5046431;28;20049;-64
2022/05/24 04:02:10;;;;;;;17.42;15.05;;;13.60;99.90;;;;;;5046271;28;20132;-64
2022/05/24 04:04:35;;;;;;;22.65;15.25;;;13.50;99.90;;;;;;5045273;28;20563;-63
2022/05/24 04:07:01;;;;;;;18.52;15.07;;;13.50;99.90;;;;;;5047364;28;20075;-64
2022/05/24 04:09:27;;;;;;;23.42;15.77;;;13.50;99.90;;;;;;5048671;28;20056;-63
2022/05/24 04:11:55;;;;;;;25.88;17.40;;;13.50;99.90;;;;;;5048534;28;20044;-64
2022/05/24 04:14:21;;;;;;;25.27;18.08;;;13.50;99.90;;;;;;5047791;28;20033;-64
2022/05/24 04:16:47;;;;;;;25.40;17.17;;;13.50;99.90;;;;;;5046488;28;20052;-63
2022/05/24 04:19:12;;;;;;;23.83;16.38;;;13.50;99.90;;;;;;5045934;28;20753;-64
2022/05/24 04:21:38;;;;;;;26.52;18.10;;;13.50;99.90;;;;;;5051453;28;20101;-63
2022/05/24 04:24:04;;;;;;;24.25;16.80;;;13.40;99.90;;;;;;5051165;28;20395;-64
2022/05/24 04:26:30;;;;;;;25.35;17.25;;;13.40;99.90;;;;;;5049672;28;20052;-64
2022/05/24 04:28:57;;;;;;;26.58;18.52;;;13.40;99.90;;;;;;5048744;28;20400;-64
2022/05/24 04:31:23;;;;;;;29.17;18.15;;;13.40;99.90;;;;;;5050923;28;20094;-63
2022/05/24 04:33:48;;;;;;;24.67;18.48;;;13.40;99.90;;;;;;5052723;28;20041;-64
2022/05/24 04:36:14;;;;;;;30.48;18.23;;;13.40;99.90;;;;;;5052122;28;20040;-64
2022/05/24 04:38:39;;;;;;;28.00;18.48;;;13.40;99.90;;;;;;5053424;28;20075;-64
2022/05/24 04:43:49;;;;;;;28.38;17.88;;;13.40;99.90;;;;;;5052093;28;20454;-64
2022/05/24 04:46:15;;;;;;;24.98;17.20;;;13.40;99.90;;;;;;5050737;28;20045;-64
2022/05/24 04:48:41;;;;;;;21.55;16.08;;;13.30;99.90;;;;;;5051742;28;20045;-64
2022/05/24 04:51:06;;;;;;;25.05;16.52;;;13.40;99.90;;;;;;5051832;28;20037;-64
2022/05/24 04:53:32;;;;;;;24.13;15.30;;;13.30;99.90;;;;;;5051398;28;20079;-64
2022/05/24 04:55:58;;;;;;;23.15;15.35;;;13.30;99.90;;;;;;5052863;28;20456;-64
2022/05/24 04:58:23;;;;;;;20.35;14.23;;;13.30;99.90;;;;;;5051094;28;20486;-65
2022/05/24 05:00:50;;;;;;;20.90;13.98;;;13.30;99.90;;;;;;5052867;28;20120;-64
2022/05/24 05:03:20;;;;;;;22.50;14.88;;;13.30;99.90;;;;;;5050178;28;20033;-65
2022/05/24 05:05:47;;;;;;;24.70;13.88;;;13.40;99.90;;;;;;5052350;28;20033;-64
2022/05/24 05:08:13;;;;;;;20.15;13.00;;;13.40;99.90;;;;;;5052015;28;20103;-64
2022/05/24 05:10:39;;;;;;;20.00;13.10;;;13.40;99.90;;;;;;5051314;28;20445;-64
2022/05/24 05:13:06;;;;;;;20.65;12.75;;;13.40;99.90;;;;;;5051895;28;20144;-64
2022/05/24 05:15:34;;;;;;;20.83;12.52;;;13.30;99.90;;;;;;5047633;28;20589;-65
2022/05/24 05:18:04;;;;;;;18.20;12.30;;;13.40;99.90;;;;;;5051048;28;20041;-63
2022/05/24 05:20:30;;;;;;;20.13;12.45;;;13.30;99.90;;;;;;5049837;28;20531;-64
2022/05/24 05:22:56;;;;;;;20.27;12.75;;;13.30;99.90;;;;;;5052182;28;20040;-64
2022/05/24 05:25:21;;;;;;;18.63;11.85;;;13.20;99.90;;;;;;5051807;28;20047;-64
2022/05/24 05:27:47;;;;;;;21.70;12.65;;;13.20;99.90;;;;;;5051393;28;20037;-63
2022/05/24 05:32:57;;;;;;;18.88;11.07;;;13.20;99.90;;;;;;5052572;28;20041;-64
2022/05/24 05:35:22;;;;;;;16.58;11.35;;;13.20;99.90;;;;;;5052541;28;20043;-63
2022/05/24 05:37:48;;;;;;;20.13;11.43;;;13.30;99.90;;;;;;5052462;28;20057;-63
2022/05/24 05:40:14;;;;;;;20.08;11.38;;;13.20;99.90;;;;;;5052918;28;20040;-63
2022/05/24 05:42:40;;;;;;;21.52;12.02;;;13.20;99.90;;;;;;5052464;28;20580;-64
2022/05/24 05:45:10;;;;;;;18.88;11.07;;;13.20;99.90;;;;;;5050079;28;20407;-63
2022/05/24 05:47:36;;;;;;;17.88;11.30;;;13.20;99.90;;;;;;5047122;28;20061;-64
2022/05/24 05:50:03;;;;;;;17.75;10.60;;;13.20;99.90;;;;;;5050946;28;20075;-64
2022/05/24 05:52:29;;;;;;;16.02;10.55;;;13.20;99.90;;;;;;5051132;28;20036;-63
2022/05/24 05:54:54;;;;;;;17.70;10.68;;;13.30;99.90;;;;;;5052159;28;20048;-63
2022/05/24 05:57:20;;;;;;;15.52;10.70;;;13.30;99.90;;;;;;5051363;28;20044;-64
2022/05/24 05:59:45;;;;;;;15.68;10.85;;;13.30;99.90;;;;;;5050757;28;20090;-63
2022/05/24 06:02:11;;;;;;;17.05;11.50;;;13.30;99.90;;;;;;5052017;28;20051;-64
2022/05/24 06:04:37;;;;;;;18.17;10.93;;;13.30;99.90;;;;;;5052326;28;20088;-63
2022/05/24 06:07:03;;;;;;;16.80;10.93;;;13.30;99.90;;;;;;5051789;28;20041;-63
2022/05/24 06:09:29;;;;;;;14.60;10.38;;;13.30;99.90;;;;;;5052491;28;20067;-64
2022/05/24 06:11:55;;;;;;;13.07;10.65;;;13.30;99.90;;;;;;5052277;28;20041;-63
2022/05/24 06:14:20;;;;;;;18.85;11.40;;;13.40;99.90;;;;;;5051344;28;20388;-64
2022/05/24 06:16:46;;;;;;;15.40;10.13;;;13.40;99.90;;;;;;5051707;28;20036;-64
2022/05/24 06:19:12;;;;;;;18.50;10.73;;;13.40;99.90;;;;;;5051905;28;20044;-63
2022/05/24 06:21:38;;;;;;;18.50;10.95;;;13.50;99.90;;;;;;5051619;28;20403;-64
2022/05/24 06:24:05;;;;;;;15.32;10.65;;;13.50;99.90;;;;;;5052010;28;20099;-64
2022/05/24 06:26:32;;;;;;;13.80;10.07;;;13.60;99.90;;;;;;5052231;28;20037;-64
2022/05/24 06:28:58;;;;;;;19.52;9.90;;;13.60;99.90;;;;;;5052044;28;20033;-63
2022/05/24 06:31:24;;;;;;;17.67;10.45;;;13.60;99.90;;;;;;5052287;28;20436;-63
2022/05/24 06:33:50;;;;;;;15.80;9.93;;;13.60;99.90;;;;;;5052060;28;20500;-63
2022/05/24 06:36:16;;;;;;;14.60;10.10;;;13.60;99.90;;;;;;5050451;28;20052;-64
2022/05/24 06:38:42;;;;;;;16.17;9.40;;;13.60;99.90;;;;;;5052082;28;20037;-63
2022/05/24 06:41:08;;;;;;;14.25;9.00;;;13.60;99.90;;;;;;5051644;28;20554;-64
2022/05/24 06:43:34;;;;;;;20.33;10.35;;;13.60;99.90;;;;;;5051078;28;20455;-63
2022/05/24 06:46:00;;;;;;;14.00;9.50;;;13.60;99.90;;;;;;5052552;28;20044;-64
2022/05/24 06:48:26;;;;;;;16.27;10.15;;;13.50;99.90;;;;;;5051161;28;20439;-63
2022/05/24 06:50:52;;;;;;;15.38;9.68;;;13.50;99.90;;;;;;5050193;28;20029;-64
2022/05/24 06:53:17;;;;;;;18.48;10.23;;;13.50;99.90;;;;;;5051416;28;20032;-63
2022/05/24 06:55:43;;;;;;;17.20;9.65;;;13.50;99.90;;;;;;5050395;28;20368;-64
2022/05/24 06:58:09;;;;;;;14.57;9.93;;;13.50;99.90;;;;;;5049780;28;20055;-64
2022/05/24 07:03:19;;;;;;;17.58;10.23;;;13.50;99.90;;;;;;5050627;28;20051;-63
2022/05/24 07:05:45;;;;;;;18.60;10.48;;;13.50;99.90;;;;;;5051476;28;20025;-64
2022/05/24 07:08:11;;;;;;;15.95;9.45;;;13.60;99.90;;;;;;5050935;28;20040;-64
2022/05/24 07:10:38;;;;;;;12.98;9.25;;;13.60;99.90;;;;;;5051040;28;20040;-63
2022/05/24 07:13:05;;;;;;;16.85;9.52;;;13.60;99.90;;;;;;5051276;28;20435;-63
2022/05/24 07:15:32;;;;;;;15.57;9.50;;;13.60;99.90;;;;;;5051694;28;20048;-63
2022/05/24 07:17:58;;;;;;;18.85;9.35;;;13.60;99.90;;;;;;5050893;28;20044;-64
2022/05/24 07:20:28;;;;;;;17.55;9.02;;;13.60;99.90;;;;;;5049463;28;20064;-63
2022/05/24 07:22:54;;;;;;;14.55;9.55;;;13.70;99.90;;;;;;5050911;28;20497;-63
2022/05/24 07:25:21;;;;;;;19.73;9.93;;;13.70;99.90;;;;;;5049697;28;20751;-64
2022/05/24 07:27:47;;;;;;;14.52;9.80;;;13.80;99.90;;;;;;5050812;28;20041;-63
2022/05/24 07:30:13;;;;;;;15.18;9.85;;;13.80;99.90;;;;;;5050638;28;20121;-63
2022/05/24 07:32:39;;;;;;;16.88;9.10;;;13.80;99.90;;;;;;5050719;28;20032;-64
2022/05/24 07:35:05;;;;;;;20.33;9.68;;;13.70;99.90;;;;;;5049324;28;20056;-64
2022/05/24 07:37:31;;;;;;;15.32;9.18;;;13.70;99.90;;;;;;5051002;28;20465;-63
2022/05/24 07:48:11;;;;;;;14.27;9.48;;;13.80;99.90;;;;;;5050043;28;20262;-64
2022/05/24 07:50:37;;;;;;;15.18;9.38;;;13.90;99.90;;;;;;5049292;28;20037;-63
2022/05/24 07:53:03;;;;;;;14.57;9.20;;;13.90;99.90;;;;;;5050419;28;20476;-64
2022/05/24 07:55:28;;;;;;;12.65;9.35;;;13.90;99.90;;;;;;5048666;28;20369;-64
2022/05/24 07:57:54;;;;;;;15.07;9.10;;;14.00;99.90;;;;;;5050368;28;20055;-64
2022/05/24 08:00:21;;;;;;;10.68;8.50;;;13.90;99.90;;;;;;5048895;28;20461;-63
2022/05/24 08:02:50;;;;;;;15.07;9.10;;;14.00;99.90;;;;;;5050461;28;20044;-63
2022/05/24 08:05:16;;;;;;;15.07;8.77;;;14.00;99.90;;;;;;5032153;28;20047;-63
2022/05/24 08:07:41;;;;;;;12.50;8.05;;;14.10;99.90;;;;;;5049912;28;20051;-64
2022/05/24 08:10:08;;;;;;;12.20;7.35;;;14.20;99.90;;;;;;5049039;28;20033;-64
2022/05/24 08:12:33;;;;;;;14.55;7.03;;;14.30;99.90;;;;;;5048942;28;20087;-64
2022/05/24 08:14:59;;;;;;;9.05;4.97;;;14.40;99.90;;;;;;5049351;28;20033;-64
2022/05/24 08:17:25;;;;;;;8.70;4.95;;;14.50;99.90;;;;;;5050209;28;20037;-63
2022/05/24 08:19:52;;;;;;;8.52;4.25;;;14.50;99.90;;;;;;5050310;28;20462;-63
2022/05/24 08:22:18;;;;;;;7.57;4.40;;;14.50;99.90;;;;;;5050140;28;20396;-64
2022/05/24 08:24:44;;;;;;;12.20;5.03;;;14.40;99.90;;;;;;5050117;28;20037;-64
2022/05/24 08:27:12;;;;;;;7.68;4.25;;;14.60;99.90;;;;;;5050202;28;20077;-64
2022/05/24 08:29:38;;;;;;;8.55;3.97;;;14.70;99.90;;;;;;5049190;28;20049;-63
2022/05/24 08:32:04;;;;;;;7.72;3.90;;;14.80;99.90;;;;;;5050449;28;20037;-63
2022/05/24 08:34:31;;;;;;;8.77;4.00;;;14.90;99.90;;;;;;5050182;28;20086;-65
2022/05/24 08:36:57;;;;;;;4.00;2.80;;;15.20;99.90;;;;;;5050200;28;20373;-64
2022/05/24 08:39:22;;;;;;;6.68;2.72;;;15.30;99.90;;;;;;5048771;28;20124;-63
2022/05/24 08:41:55;;;;;;;6.13;3.25;;;15.60;99.90;;;;;;5050304;28;20396;-63
2022/05/24 08:50:09;;;;;;;7.97;3.90;;;16.20;99.90;;;;;;5050178;28;20040;-63
2022/05/24 08:52:54;;;;;;;6.85;3.53;;;16.30;99.90;;;;;;5049951;28;20120;-65
2022/05/24 08:55:20;;;;;;;7.57;3.63;;;16.20;99.90;;;;;;5049063;28;20547;-64
2022/05/24 08:57:52;;;;;;;8.25;4.07;;;16.10;99.90;;;;;;5049750;28;20072;-64
2022/05/24 09:00:25;;;;;;;7.35;3.97;;;16.00;99.90;;;;;;5049942;28;20040;-64
2022/05/24 09:02:50;;;;;;;11.73;3.90;;;15.90;99.90;;;;;;5049944;28;20036;-64
2022/05/24 09:05:52;;;;;;;9.20;4.28;;;15.70;99.90;;;;;;5050330;28;20032;-64
2022/05/24 09:08:29;;;;;;;10.48;3.80;;;15.50;99.90;;;;;;5050122;28;20048;-64
2022/05/24 09:11:07;;;;;;;8.68;4.25;;;15.20;99.90;;;;;;5053668;28;20033;-64
2022/05/24 09:13:58;;;;;;;8.90;4.60;;;15.10;99.90;;;;;;5053383;28;20458;-64
2022/05/24 09:16:41;;;;;;;8.20;4.75;;;14.90;99.90;;;;;;5053536;28;20033;-64
2022/05/24 09:19:19;;;;;;;8.25;5.00;;;14.90;99.90;;;;;;5053627;28;20459;-64
2022/05/24 09:21:47;;;;;;;9.20;4.80;;;14.90;99.90;;;;;;5053339;28;20041;-63
2022/05/24 09:24:41;;;;;;;7.72;4.65;;;14.90;99.90;;;;;;5053334;28;20076;-63
2022/05/24 09:27:22;;;;;;;7.35;4.45;;;15.10;99.90;;;;;;5053241;28;20448;-63
2022/05/24 09:30:04;;;;;;;8.35;4.78;;;15.30;99.90;;;;;;5052152;28;20396;-64
2022/05/24 09:32:40;;;;;;;8.32;4.43;;;15.60;99.90;;;;;;5053269;28;20033;-64
2022/05/24 09:35:21;;;;;;;6.75;4.55;;;15.70;99.90;;;;;;5053320;28;20029;-64
2022/05/24 09:38:04;;;;;;;7.10;4.50;;;15.90;99.90;;;;;;5052961;28;20053;-64
2022/05/24 09:40:58;;;;;;;10.15;4.38;;;15.80;99.90;;;;;;5051314;28;20040;-64
2022/05/24 09:43:33;;;;;;;6.90;3.70;;;15.70;99.90;;;;;;5052703;28;20082;-64
2022/05/24 09:46:12;;;;;;;6.60;3.45;;;15.70;99.90;;;;;;5052537;28;20111;-64
2022/05/24 09:49:13;;;;;;;2.67;2.10;;;15.80;99.90;;;;;;5051127;28;20059;-65
2022/05/24 09:51:41;;;;;;;6.43;2.35;;;15.70;99.90;;;;;;5049377;28;20056;-64
2022/05/24 09:54:20;;;;;;;3.53;1.50;;;15.80;99.90;;;;;;5050051;28;20045;-65
2022/05/24 09:57:09;;;;;;;4.72;1.58;;;15.70;99.90;;;;;;5050064;28;20426;-64
2022/05/24 09:59:39;;;;;;;2.53;1.50;;;15.70;99.90;;;;;;5050159;28;20447;-65
2022/05/24 10:02:25;;;;;;;3.78;1.60;;;15.70;99.90;;;;;;5050017;28;20060;-64
2022/05/24 10:04:51;;;;;;;4.72;1.85;;;15.90;99.90;;;;;;5049813;28;20052;-63
2022/05/24 10:07:20;;;;;;;2.38;1.80;;;15.70;99.90;;;;;;5049849;28;20120;-64
2022/05/24 10:10:07;;;;;;;3.38;1.88;;;15.70;99.90;;;;;;5049710;28;20064;-64
2022/05/24 10:13:17;;;;;;;2.42;1.80;;;15.80;99.90;;;;;;5049897;28;20044;-63
2022/05/24 10:16:08;;;;;;;3.63;2.30;;;15.80;99.90;;;;;;5047498;28;20057;-64
2022/05/24 10:18:49;;;;;;;3.47;2.17;;;15.80;99.90;;;;;;5049542;28;20052;-65
2022/05/24 10:21:39;;;;;;;1.55;0.60;;;15.60;99.90;;;;;;5050015;28;20052;-64
2022/05/24 10:24:29;;;;;;;0.70;0.30;;;15.20;99.90;;;;;;5031463;28;20056;-66
2022/05/24 10:27:15;;;;;;;2.75;0.40;;;14.50;99.90;;;;;;5048474;28;20064;-65
2022/05/24 10:30:23;;;;;;;2.45;0.55;;;14.20;99.90;;;;;;5050721;28;20053;-65
2022/05/24 10:39:00;;;;;;;0.63;0.50;;;13.30;99.90;;;;;;5051224;28;20044;-63
2022/05/24 10:41:49;;;;;;;0.82;0.68;;;13.10;99.90;;;;;;5049869;28;20510;-64
2022/05/24 10:44:22;;;;;;;2.53;0.70;;;13.00;99.90;;;;;;5050224;28;20068;-64
2022/05/24 10:46:53;;;;;;;3.00;0.75;;;12.80;99.90;;;;;;5051097;28;20044;-63
2022/05/24 10:49:30;;;;;;;2.90;0.73;;;12.70;99.90;;;;;;5047798;28;20094;-63
2022/05/24 10:52:20;;;;;;;2.50;1.20;;;12.60;99.90;;;;;;5050395;28;20041;-64
2022/05/24 10:54:56;;;;;;;3.72;1.20;;;12.60;99.90;;;;;;5049479;28;20041;-64
2022/05/24 10:57:31;;;;;;;4.22;1.27;;;12.60;99.90;;;;;;5050379;28;20073;-64
2022/05/24 11:00:06;;;;;;;2.58;1.10;;;12.60;99.90;;;;;;5050176;28;20037;-63
2022/05/24 11:02:38;;;;;;;3.50;1.40;;;12.70;99.90;;;;;;5049694;28;20459;-63
2022/05/24 11:05:10;;;;;;;5.53;1.70;;;12.80;99.90;;;;;;5047915;28;20108;-64
2022/05/24 11:07:37;;;;;;;3.60;1.70;;;12.90;99.90;;;;;;5048247;28;20080;-65
2022/05/24 11:10:25;;;;;;;4.07;2.30;;;13.00;99.90;;;;;;5049855;28;20041;-63
2022/05/24 11:12:55;;;;;;;3.22;1.70;;;13.10;99.90;;;;;;5049669;28;20510;-62
2022/05/24 11:15:33;;;;;;;4.35;2.50;;;13.10;99.90;;;;;;5050317;28;20043;-63
2022/05/24 11:18:02;;;;;;;3.53;1.95;;;13.10;99.90;;;;;;5050604;28;20032;-63
2022/05/24 11:20:35;;;;;;;4.10;2.15;;;13.10;99.90;;;;;;5048250;28;20136;-64
2022/05/24 11:23:21;;;;;;;4.70;2.10;;;13.00;99.90;;;;;;5049702;28;20536;-63
2022/05/24 11:25:55;;;;;;;1.77;1.35;;;13.00;99.90;;;;;;5048863;28;20045;-63
2022/05/24 11:28:33;;;;;;;3.78;1.58;;;12.90;99.90;;;;;;5049369;28;20095;-63
2022/05/24 11:31:27;;;;;;;3.53;1.95;;;13.00;99.90;;;;;;5048198;28;20040;-63
2022/05/24 11:33:53;;;;;;;2.40;1.40;;;13.00;99.90;;;;;;5050530;28;20499;-63
2022/05/24 11:36:44;;;;;;;2.40;1.10;;;13.10;99.90;;;;;;5048064;28;20064;-64
2022/05/24 11:39:32;;;;;;;2.30;0.93;;;13.20;99.90;;;;;;5024975;28;20053;-64
2022/05/24 11:42:21;;;;;;;2.33;1.10;;;13.20;99.90;;;;;;5027648;28;20154;-63
2022/05/24 11:44:48;;;;;;;1.48;1.20;;;13.30;99.90;;;;;;5009007;28;20634;-63
2022/05/24 11:47:35;;;;;;;3.25;1.30;;;13.30;99.90;;;;;;5026017;28;20041;-63
2022/05/24 11:50:10;;;;;;;3.08;1.50;;;13.30;99.90;;;;;;5027619;28;20124;-63
2022/05/24 11:53:00;;;;;;;1.35;1.20;;;13.50;99.90;;;;;;5026892;28;20487;-64
2022/05/24 11:55:49;;;;;;;2.28;1.25;;;13.90;99.90;;;;;;5007932;28;20042;-63
2022/05/24 11:58:21;;;;;;;3.05;1.17;;;14.40;99.90;;;;;;4990829;28;20041;-63
2022/05/24 12:01:00;;;;;;;5.78;1.20;;;14.70;99.90;;;;;;5007907;28;20095;-63
2022/05/24 12:09:17;;;;;;;3.60;0.75;;;15.30;99.90;;;;;;5005801;28;20041;-64
2022/05/24 12:11:44;;;;;;;1.90;0.70;;;15.50;99.90;;;;;;5007685;28;20532;-64
2022/05/24 12:14:17;;;;;;;1.42;0.77;;;15.50;99.90;;;;;;5003736;28;20046;-65
2022/05/24 12:16:54;;;;;;;;;;;15.50;99.90;;;;;;5021033;28;20050;-63
2022/05/24 12:19:35;;;;;;;1.52;0.90;;;15.50;99.90;;;;;;5026936;28;19917;-63
2022/05/24 12:22:18;;;;;;;2.63;0.75;;;15.40;99.90;;;;;;5027171;28;20091;-63
2022/05/24 12:24:49;;;;;;;3.60;0.80;;;15.50;99.90;;;;;;5027666;28;20085;-64
2022/05/24 12:27:47;;;;;;;3.40;0.68;;;15.40;99.90;;;;;;5026955;28;20144;-64
2022/05/24 12:30:21;;;;;;;1.98;0.75;;;15.60;99.90;;;;;;5010338;28;20072;-63
2022/05/24 12:32:48;;;;;;;2.65;0.80;;;15.80;99.90;;;;;;5041655;28;20041;-64
2022/05/24 12:35:17;;;;;;;1.80;0.65;;;15.70;99.90;;;;;;5049517;28;20090;-63
2022/05/24 12:38:01;;;;;;;5.03;0.80;;;15.50;99.90;;;;;;5047527;28;20052;-65
2022/05/24 12:40:31;;;;;;;1.33;0.60;;;15.40;99.90;;;;;;5051573;28;20068;-63
2022/05/24 12:42:59;;;;;;;2.03;0.90;;;15.30;99.90;;;;;;5053395;28;20041;-62
2022/05/24 12:45:34;;;;;;;2.88;0.70;;;15.40;99.90;;;;;;5051003;28;20059;-65
2022/05/24 12:48:00;;;;;;;4.18;1.00;;;15.70;99.90;;;;;;5052707;28;20776;-64
2022/05/24 12:50:34;;;;;;;1.88;0.82;;;15.80;99.90;;;;;;5053342;28;20510;-64
2022/05/24 12:53:09;;;;;;;3.65;1.00;;;16.10;99.90;;;;;;5052180;28;20116;-64
2022/05/24 12:55:56;;;;;;;3.47;0.68;;;16.10;99.90;;;;;;5052017;28;20049;-65
2022/05/24 12:58:24;;;;;;;2.92;1.00;;;16.10;99.90;;;;;;5053124;28;20196;-65
2022/05/24 13:00:50;;;;;;;2.60;1.00;;;16.00;99.90;;;;;;5051508;28;20049;-64
2022/05/24 13:03:23;;;;;;;1.65;1.00;;;15.90;99.90;;;;;;5051461;28;20372;-64
2022/05/24 13:05:55;;;;;;;2.60;1.10;;;15.80;99.90;;;;;;5052087;28;20060;-64
2022/05/24 13:08:21;;;;;;;5.43;1.60;;;15.90;99.90;;;;;;5053065;28;20049;-65
2022/05/24 13:10:48;;;;;;;4.18;1.55;;;16.00;99.90;;;;;;5051993;28;20545;-64
2022/05/24 13:13:21;;;;;;;4.07;1.85;;;16.10;99.90;;;;;;5051729;28;20475;-65
2022/05/24 13:15:50;;;;;;;5.38;1.90;;;16.10;99.90;;;;;;5048152;28;20037;-64
2022/05/24 13:18:29;;;;;;;2.38;1.30;;;16.20;99.90;;;;;;5051212;28;20056;-65
2022/05/24 13:21:01;;;;;;;3.45;1.20;;;16.20;99.90;;;;;;5052529;28;20503;-65
2022/05/24 13:23:40;;;;;;;6.10;1.50;;;16.10;99.90;;;;;;5052557;28;20087;-64
2022/05/24 13:26:05;;;;;;;3.10;1.40;;;16.10;99.90;;;;;;5052490;28;20280;-64
2022/05/24 13:28:39;;;;;;;2.85;1.50;;;16.10;99.90;;;;;;5052585;28;20118;-64
2022/05/24 13:33:54;;;;;;;5.55;1.65;;;16.00;99.90;;;;;;5052713;28;20037;-66
2022/05/24 13:36:24;;;;;;;3.35;1.52;;;16.20;99.90;;;;;;5052341;28;20083;-64
2022/05/24 13:39:02;;;;;;;3.55;1.52;;;16.30;99.90;;;;;;5052590;28;20037;-65
2022/05/24 13:41:37;;;;;;;3.45;1.67;;;16.20;99.90;;;;;;5052302;28;20051;-65
2022/05/24 13:44:10;;;;;;;4.28;1.60;;;16.10;99.90;;;;;;5046017;28;20072;-65
2022/05/24 13:46:50;;;;;;;3.35;2.08;;;16.20;99.90;;;;;;5050138;28;20052;-65
2022/05/24 13:49:26;;;;;;;5.70;2.40;;;16.40;99.90;;;;;;5051543;28;20496;-65
2022/05/24 13:51:52;;;;;;;2.13;1.20;;;16.50;99.90;;;;;;5051413;28;20484;-65